Time;durP1;ratioP1;P1;durP2;ratioP2;P2;SDS_P1;SDS_P2;PMS_P1;PMS_P2;Temp;Humidity;BMP_temperature;BMP_pressure;BME280_temperature;BME280_humidity;BME280_pressure;Samples;Min_cycle;Max_cycle;Signal;HPM_P1;HPM_P2
2021/03/22 00:01:07;;;;;;;10.77;3.00;;;;;;;;;;5003373;28;20171;-81
2021/03/22 00:03:33;;;;;;;15.30;3.30;;;;;;;;;;4999433;28;20192;-87
2021/03/22 00:05:59;;;;;;;9.48;3.45;;;;;;;;;;5003034;28;20206;-86
2021/03/22 00:08:25;;;;;;;7.18;2.90;;;;;;;;;;5001112;28;20661;-82
2021/03/22 00:10:51;;;;;;;6.50;2.80;;;;;;;;;;4999696;28;20298;-82
2021/03/22 00:13:19;;;;;;;9.75;3.13;;;;;;;;;;5013919;28;20179;-82
2021/03/22 00:15:45;;;;;;;10.52;3.67;;;;;;;;;;4997613;28;20196;-82
2021/03/22 00:18:14;;;;;;;13.55;3.70;;;;;;;;;;4993356;28;20187;-82
2021/03/22 00:20:40;;;;;;;8.00;3.22;;;;;;;;;;5003149;28;20179;-82
2021/03/22 00:23:06;;;;;;;8.38;3.10;;;;;;;;;;5014305;28;20201;-82
2021/03/22 00:25:33;;;;;;;7.75;3.08;;;;;;;;;;4996469;28;20237;-84
2021/03/22 00:27:59;;;;;;;9.52;3.15;;;;;;;;;;4998765;28;20190;-81
2021/03/22 00:30:27;;;;;;;6.38;3.20;;;;;;;;;;5003939;28;20199;-82
2021/03/22 00:32:54;;;;;;;12.38;3.20;;;;;;;;;;5002460;28;20183;-83
2021/03/22 00:35:20;;;;;;;12.88;3.40;;;;;;;;;;5000177;28;20225;-82
2021/03/22 00:37:46;;;;;;;7.03;2.85;;;;;;;;;;4997991;28;20175;-81
2021/03/22 00:40:14;;;;;;;10.80;2.45;;;;;;;;;;5015271;28;20251;-82
2021/03/22 00:42:40;;;;;;;7.75;3.33;;;;;;;;;;5000610;28;20187;-83
2021/03/22 00:45:08;;;;;;;10.98;3.60;;;;;;;;;;5000009;28;20191;-82
2021/03/22 00:47:34;;;;;;;12.30;3.05;;;;;;;;;;4998333;28;20184;-82
2021/03/22 00:50:02;;;;;;;8.70;2.60;;;;;;;;;;4997814;28;20187;-81
2021/03/22 00:52:28;;;;;;;8.43;3.00;;;;;;;;;;5000537;28;20433;-85
2021/03/22 00:54:54;;;;;;;9.88;3.05;;;;;;;;;;4994172;28;20302;-82
2021/03/22 00:57:21;;;;;;;4.82;2.47;;;;;;;;;;4992971;28;20187;-83
2021/03/22 00:59:47;;;;;;;8.80;2.30;;;;;;;;;;4996060;28;20210;-84
2021/03/22 01:02:12;;;;;;;5.40;2.77;;;;;;;;;;5002495;28;20913;-82
2021/03/22 01:04:38;;;;;;;4.00;2.10;;;;;;;;;;4999648;28;20563;-83
2021/03/22 01:07:05;;;;;;;11.75;2.92;;;;;;;;;;4995483;28;20179;-82
2021/03/22 01:09:31;;;;;;;9.02;2.80;;;;;;;;;;4999749;28;20187;-83
2021/03/22 01:11:57;;;;;;;5.75;2.67;;;;;;;;;;4999103;28;20278;-85
2021/03/22 01:14:23;;;;;;;7.13;2.13;;;;;;;;;;5003073;28;20640;-81
2021/03/22 01:16:49;;;;;;;8.73;2.70;;;;;;;;;;4997404;28;20285;-82
2021/03/22 01:19:17;;;;;;;12.03;3.00;;;;;;;;;;4999277;28;20315;-83
2021/03/22 01:21:48;;;;;;;8.63;2.72;;;;;;;;;;4993908;28;20764;-82
2021/03/22 01:24:15;;;;;;;6.43;2.22;;;;;;;;;;4999791;28;20246;-82
2021/03/22 01:26:41;;;;;;;5.50;2.25;;;;;;;;;;5002855;28;20263;-81
2021/03/22 01:29:15;;;;;;;7.20;2.85;;;;;;;;;;4997430;28;20198;-81
2021/03/22 01:31:42;;;;;;;9.50;3.15;;;;;;;;;;5000252;28;20217;-83
2021/03/22 01:34:08;;;;;;;9.07;3.17;;;;;;;;;;4998875;28;20175;-81
2021/03/22 01:36:35;;;;;;;8.43;2.27;;;;;;;;;;4994757;28;20279;-82
2021/03/22 01:39:12;;;;;;;14.35;4.15;;;;;;;;;;4998868;28;20446;-84
2021/03/22 01:41:41;;;;;;;4.70;2.75;;;;;;;;;;5002192;28;20618;-84
2021/03/22 01:44:26;;;;;;;11.55;3.22;;;;;;;;;;4998801;28;20217;-86
2021/03/22 01:46:54;;;;;;;11.75;3.53;;;;;;;;;;5001654;28;20679;-81
2021/03/22 01:49:21;;;;;;;6.80;2.47;;;;;;;;;;5002428;28;20167;-82
2021/03/22 01:51:47;;;;;;;5.78;2.28;;;;;;;;;;4999549;28;20210;-83
2021/03/22 01:54:14;;;;;;;7.90;2.75;;;;;;;;;;4999529;28;20184;-85
2021/03/22 01:56:43;;;;;;;8.65;3.25;;;;;;;;;;5002291;28;20203;-82
2021/03/22 01:59:10;;;;;;;8.77;2.45;;;;;;;;;;5005646;28;20187;-82
2021/03/22 02:01:36;;;;;;;8.75;3.17;;;;;;;;;;5000006;28;20691;-82
2021/03/22 02:04:02;;;;;;;6.00;2.50;;;;;;;;;;4998554;28;20205;-82
2021/03/22 02:06:28;;;;;;;10.00;2.85;;;;;;;;;;4997847;28;20198;-82
2021/03/22 02:08:55;;;;;;;8.50;2.77;;;;;;;;;;4996240;28;20195;-81
2021/03/22 02:11:22;;;;;;;8.90;3.78;;;;;;;;;;4999303;28;20462;-81
2021/03/22 02:13:49;;;;;;;6.97;3.20;;;;;;;;;;4996928;28;20637;-81
2021/03/22 02:16:20;;;;;;;10.35;2.50;;;;;;;;;;5013335;28;20214;-80
2021/03/22 02:19:07;;;;;;;6.93;2.25;;;;;;;;;;4997370;28;20238;-82
2021/03/22 02:21:33;;;;;;;12.30;2.95;;;;;;;;;;4990507;28;20219;-82
2021/03/22 02:23:59;;;;;;;6.13;2.90;;;;;;;;;;4998473;28;20180;-82
2021/03/22 02:26:43;;;;;;;9.35;2.88;;;;;;;;;;5001802;28;20986;-83
2021/03/22 02:29:28;;;;;;;7.97;2.70;;;;;;;;;;4997145;28;20257;-81
2021/03/22 02:31:54;;;;;;;3.95;2.65;;;;;;;;;;4997751;28;20179;-82
2021/03/22 02:34:30;;;;;;;9.57;3.10;;;;;;;;;;5002653;28;20173;-83
2021/03/22 02:36:59;;;;;;;10.40;2.63;;;;;;;;;;4999380;28;20458;-81
2021/03/22 02:39:29;;;;;;;5.57;2.78;;;;;;;;;;4997386;28;20207;-82
2021/03/22 02:41:57;;;;;;;15.48;3.83;;;;;;;;;;5000550;28;20245;-82
2021/03/22 02:44:24;;;;;;;8.65;3.58;;;;;;;;;;4999835;28;20186;-82
2021/03/22 02:46:58;;;;;;;8.70;2.58;;;;;;;;;;4996036;28;20183;-80
2021/03/22 02:49:24;;;;;;;9.52;3.97;;;;;;;;;;5002784;28;20241;-82
2021/03/22 02:51:56;;;;;;;7.32;2.95;;;;;;;;;;4997282;28;20255;-82
2021/03/22 02:54:41;;;;;;;5.97;4.40;;;;;;;;;;5002315;28;20187;-82
2021/03/22 02:57:11;;;;;;;4.65;3.08;;;;;;;;;;5001350;28;20688;-82
2021/03/22 02:59:45;;;;;;;6.45;2.70;;;;;;;;;;5001235;28;20186;-82
2021/03/22 03:02:13;;;;;;;12.05;3.47;;;;;;;;;;5001468;28;20202;-82
2021/03/22 03:04:39;;;;;;;7.97;2.80;;;;;;;;;;4998301;28;20176;-81
2021/03/22 03:07:10;;;;;;;9.23;2.83;;;;;;;;;;5013306;28;20185;-82
2021/03/22 03:09:38;;;;;;;10.00;3.20;;;;;;;;;;4996783;28;20224;-82
2021/03/22 03:12:13;;;;;;;12.80;4.45;;;;;;;;;;4998039;28;20246;-82
2021/03/22 03:14:40;;;;;;;7.90;3.20;;;;;;;;;;5005080;28;20182;-82
2021/03/22 03:17:06;;;;;;;9.95;3.05;;;;;;;;;;5000624;28;20194;-82
2021/03/22 03:19:32;;;;;;;6.60;4.15;;;;;;;;;;4997554;28;20234;-82
2021/03/22 03:21:58;;;;;;;16.40;2.75;;;;;;;;;;5002190;28;20187;-82
2021/03/22 03:24:24;;;;;;;16.20;3.67;;;;;;;;;;5000411;28;20175;-82
2021/03/22 03:26:50;;;;;;;6.45;2.58;;;;;;;;;;5003846;28;20192;-82
2021/03/22 03:29:16;;;;;;;11.70;3.20;;;;;;;;;;4999937;28;20681;-82
2021/03/22 03:31:42;;;;;;;3.40;2.22;;;;;;;;;;4997684;28;20450;-82
2021/03/22 03:34:08;;;;;;;16.13;3.10;;;;;;;;;;5000950;28;20257;-82
2021/03/22 03:36:34;;;;;;;7.47;4.03;;;;;;;;;;5010039;28;20486;-82
2021/03/22 03:39:01;;;;;;;8.38;2.55;;;;;;;;;;5004981;28;20250;-82
2021/03/22 03:41:27;;;;;;;6.85;2.40;;;;;;;;;;5005564;28;20214;-82
2021/03/22 03:43:53;;;;;;;6.40;2.47;;;;;;;;;;5001071;28;20636;-82
2021/03/22 03:46:19;;;;;;;11.85;2.70;;;;;;;;;;5006618;28;20174;-82
2021/03/22 03:48:45;;;;;;;4.07;2.60;;;;;;;;;;5002653;28;20211;-82
2021/03/22 03:51:11;;;;;;;4.72;3.20;;;;;;;;;;5000955;28;20188;-82
2021/03/22 03:53:37;;;;;;;4.65;2.35;;;;;;;;;;5004309;28;20183;-81
2021/03/22 03:56:03;;;;;;;6.93;2.35;;;;;;;;;;4993084;28;20294;-82
2021/03/22 03:58:29;;;;;;;10.32;3.38;;;;;;;;;;5001835;28;20214;-82
2021/03/22 04:00:55;;;;;;;9.32;2.65;;;;;;;;;;5000026;28;20199;-83
2021/03/22 04:03:23;;;;;;;8.70;2.88;;;;;;;;;;5001260;28;20273;-82
2021/03/22 04:06:08;;;;;;;5.32;2.22;;;;;;;;;;5003836;28;20187;-82
2021/03/22 04:08:36;;;;;;;9.30;2.92;;;;;;;;;;5004220;28;20225;-82
2021/03/22 04:11:04;;;;;;;13.38;3.42;;;;;;;;;;4998821;28;20219;-82
2021/03/22 04:13:30;;;;;;;10.43;2.92;;;;;;;;;;5001988;28;20234;-82
2021/03/22 04:15:56;;;;;;;8.52;4.20;;;;;;;;;;5013860;28;20203;-82
2021/03/22 04:18:22;;;;;;;6.85;3.00;;;;;;;;;;4999275;28;20191;-82
2021/03/22 04:20:48;;;;;;;6.57;3.40;;;;;;;;;;5002971;28;20171;-82
2021/03/22 04:23:14;;;;;;;9.38;3.17;;;;;;;;;;5000783;28;20215;-81
2021/03/22 04:25:40;;;;;;;7.35;2.35;;;;;;;;;;4998431;28;20190;-80
2021/03/22 04:28:06;;;;;;;3.67;2.30;;;;;;;;;;5011240;28;20179;-82
2021/03/22 04:30:32;;;;;;;12.43;3.45;;;;;;;;;;5004384;28;20191;-82
2021/03/22 04:32:58;;;;;;;9.43;3.17;;;;;;;;;;5002168;28;20187;-83
2021/03/22 04:35:26;;;;;;;9.98;3.53;;;;;;;;;;5000928;28;20473;-82
2021/03/22 04:37:53;;;;;;;4.55;2.50;;;;;;;;;;4998226;28;20620;-82
2021/03/22 04:40:23;;;;;;;10.82;4.60;;;;;;;;;;5003095;28;20624;-82
2021/03/22 04:42:49;;;;;;;4.22;2.83;;;;;;;;;;5000666;28;20179;-82
2021/03/22 04:45:16;;;;;;;10.00;3.00;;;;;;;;;;4997427;28;20184;-82
2021/03/22 04:47:42;;;;;;;7.50;2.33;;;;;;;;;;4996994;28;20273;-82
2021/03/22 04:50:08;;;;;;;8.15;2.70;;;;;;;;;;5002565;28;20183;-82
2021/03/22 04:52:34;;;;;;;5.50;2.35;;;;;;;;;;5001845;28;20234;-82
2021/03/22 04:55:00;;;;;;;5.05;2.83;;;;;;;;;;4998674;28;20215;-82
2021/03/22 04:57:28;;;;;;;6.95;3.42;;;;;;;;;;5002586;28;20175;-82
2021/03/22 04:59:54;;;;;;;6.68;3.33;;;;;;;;;;5001978;28;20183;-82
2021/03/22 05:02:20;;;;;;;8.00;3.28;;;;;;;;;;4999775;28;20171;-82
2021/03/22 05:04:46;;;;;;;8.90;2.78;;;;;;;;;;4998746;28;20239;-82
2021/03/22 05:07:13;;;;;;;9.90;2.30;;;;;;;;;;4999939;28;20214;-82
2021/03/22 05:09:39;;;;;;;10.30;3.30;;;;;;;;;;4998052;28;20201;-82
2021/03/22 05:12:05;;;;;;;11.98;2.92;;;;;;;;;;4999616;28;20299;-82
2021/03/22 05:14:31;;;;;;;7.45;3.10;;;;;;;;;;5003697;28;20183;-82
2021/03/22 05:16:58;;;;;;;11.07;3.05;;;;;;;;;;5000124;28;20216;-82
2021/03/22 05:19:24;;;;;;;15.32;3.42;;;;;;;;;;4999784;28;20175;-82
2021/03/22 05:21:50;;;;;;;20.45;3.20;;;;;;;;;;5003843;28;20242;-82
2021/03/22 05:24:16;;;;;;;13.32;3.33;;;;;;;;;;4999060;28;20308;-82
2021/03/22 05:26:42;;;;;;;8.93;2.40;;;;;;;;;;4997548;28;20192;-82
2021/03/22 05:29:08;;;;;;;5.10;2.20;;;;;;;;;;4998989;28;20189;-82
2021/03/22 05:31:34;;;;;;;7.05;2.28;;;;;;;;;;5002679;28;20171;-83
2021/03/22 05:34:00;;;;;;;9.20;2.92;;;;;;;;;;4999149;28;20211;-82
2021/03/22 05:36:27;;;;;;;5.70;2.13;;;;;;;;;;4997543;28;20215;-82
2021/03/22 05:38:53;;;;;;;11.00;3.42;;;;;;;;;;5001368;28;20210;-82
2021/03/22 05:41:20;;;;;;;8.57;2.90;;;;;;;;;;4999796;28;20687;-82
2021/03/22 05:43:51;;;;;;;7.75;2.95;;;;;;;;;;4996988;28;20182;-82
2021/03/22 05:46:22;;;;;;;10.27;3.03;;;;;;;;;;5002487;28;20571;-83
2021/03/22 05:49:07;;;;;;;6.97;3.03;;;;;;;;;;5002993;28;20218;-82
2021/03/22 05:51:52;;;;;;;8.23;3.42;;;;;;;;;;4998806;28;20187;-82
2021/03/22 05:54:27;;;;;;;9.80;2.53;;;;;;;;;;4998042;28;20214;-82
2021/03/22 05:57:08;;;;;;;11.70;2.30;;;;;;;;;;4992271;28;20198;-81
2021/03/22 05:59:49;;;;;;;6.20;2.50;;;;;;;;;;5000940;28;20179;-82
2021/03/22 06:02:32;;;;;;;6.72;2.45;;;;;;;;;;5014315;28;20187;-82
2021/03/22 06:05:00;;;;;;;5.35;2.83;;;;;;;;;;4996699;28;20195;-81
2021/03/22 06:07:26;;;;;;;5.93;2.97;;;;;;;;;;4999400;28;20211;-82
2021/03/22 06:10:04;;;;;;;8.93;2.10;;;;;;;;;;4996620;28;20258;-81
2021/03/22 06:12:40;;;;;;;8.52;2.55;;;;;;;;;;4996478;28;20219;-81
2021/03/22 06:15:15;;;;;;;8.13;2.75;;;;;;;;;;4999938;28;20223;-82
2021/03/22 06:17:45;;;;;;;5.22;1.95;;;;;;;;;;4997900;28;20179;-82
2021/03/22 06:20:20;;;;;;;10.18;2.10;;;;;;;;;;4998235;28;20187;-82
2021/03/22 06:22:47;;;;;;;3.67;2.28;;;;;;;;;;4997329;28;20182;-81
2021/03/22 06:25:22;;;;;;;8.15;2.90;;;;;;;;;;4999073;28;20242;-82
2021/03/22 06:27:53;;;;;;;5.22;2.30;;;;;;;;;;4997611;28;20182;-82
2021/03/22 06:30:21;;;;;;;9.23;2.05;;;;;;;;;;4998949;28;20183;-81
2021/03/22 06:32:49;;;;;;;4.65;3.00;;;;;;;;;;4991617;28;20262;-82
2021/03/22 06:35:19;;;;;;;8.27;2.65;;;;;;;;;;4997807;28;20978;-83
2021/03/22 06:37:45;;;;;;;9.25;2.65;;;;;;;;;;4997569;28;20195;-82
2021/03/22 06:40:11;;;;;;;10.43;2.70;;;;;;;;;;5014043;28;20191;-82
2021/03/22 06:42:38;;;;;;;5.70;2.80;;;;;;;;;;4998509;28;20186;-82
2021/03/22 06:45:05;;;;;;;4.38;2.15;;;;;;;;;;4998891;28;20183;-82
2021/03/22 06:47:32;;;;;;;5.95;2.50;;;;;;;;;;5000739;28;20202;-82
2021/03/22 06:50:17;;;;;;;5.28;2.70;;;;;;;;;;5003730;28;20199;-82
2021/03/22 06:52:47;;;;;;;9.25;2.65;;;;;;;;;;4996066;28;20184;-82
2021/03/22 06:55:28;;;;;;;10.57;2.70;;;;;;;;;;4997435;28;20562;-82
2021/03/22 06:57:54;;;;;;;5.43;3.20;;;;;;;;;;5005992;28;20187;-82
2021/03/22 07:00:21;;;;;;;8.63;5.10;;;;;;;;;;4998425;28;20184;-82
2021/03/22 07:02:47;;;;;;;6.82;2.75;;;;;;;;;;5006184;28;20289;-82
2021/03/22 07:05:22;;;;;;;7.30;3.80;;;;;;;;;;5010859;28;20231;-82
2021/03/22 07:07:51;;;;;;;10.55;2.50;;;;;;;;;;5007553;28;20206;-81
2021/03/22 07:10:17;;;;;;;7.38;2.92;;;;;;;;;;5003114;28;20175;-82
2021/03/22 07:12:43;;;;;;;11.48;5.25;;;;;;;;;;5001196;28;20210;-81
2021/03/22 07:15:18;;;;;;;10.10;2.78;;;;;;;;;;5001328;28;20225;-82
2021/03/22 07:17:44;;;;;;;9.05;3.75;;;;;;;;;;5002717;28;20545;-83
2021/03/22 07:20:15;;;;;;;6.93;3.17;;;;;;;;;;4995486;28;20672;-81
2021/03/22 07:22:42;;;;;;;4.43;2.90;;;;;;;;;;5000877;28;20198;-80
2021/03/22 07:25:27;;;;;;;7.65;2.50;;;;;;;;;;5005134;28;20187;-80
2021/03/22 07:27:57;;;;;;;6.53;2.50;;;;;;;;;;4995101;28;20219;-81
2021/03/22 07:30:29;;;;;;;4.57;2.70;;;;;;;;;;4991612;28;20199;-82
2021/03/22 07:32:58;;;;;;;6.78;3.45;;;;;;;;;;5002862;28;20211;-81
2021/03/22 07:35:33;;;;;;;9.70;2.40;;;;;;;;;;5000879;28;21000;-83
2021/03/22 07:38:14;;;;;;;7.43;3.38;;;;;;;;;;4998926;28;20215;-82
2021/03/22 07:40:49;;;;;;;6.45;2.92;;;;;;;;;;5004369;28;20186;-82
2021/03/22 07:43:31;;;;;;;5.10;2.70;;;;;;;;;;5014345;28;20175;-82
2021/03/22 07:46:00;;;;;;;6.93;2.45;;;;;;;;;;4995565;28;20190;-82
2021/03/22 07:48:26;;;;;;;8.45;2.50;;;;;;;;;;5005149;28;20203;-83
2021/03/22 07:51:11;;;;;;;6.97;2.40;;;;;;;;;;4999871;28;20260;-82
2021/03/22 07:53:42;;;;;;;11.65;3.97;;;;;;;;;;5009191;28;20442;-82
2021/03/22 07:56:09;;;;;;;9.82;3.08;;;;;;;;;;5000463;28;20211;-81
2021/03/22 07:58:38;;;;;;;7.43;2.55;;;;;;;;;;4997870;28;20182;-85
2021/03/22 08:01:03;;;;;;;8.90;4.05;;;;;;;;;;4998810;28;20183;-81
2021/03/22 08:03:39;;;;;;;13.38;3.55;;;;;;;;;;4999192;28;20190;-85
2021/03/22 08:06:15;;;;;;;6.20;3.17;;;;;;;;;;5001975;28;20191;-84
2021/03/22 08:09:00;;;;;;;6.93;3.13;;;;;;;;;;4994553;28;20191;-81
2021/03/22 08:11:39;;;;;;;9.20;3.80;;;;;;;;;;4994572;28;20739;-84
2021/03/22 08:14:11;;;;;;;9.20;4.03;;;;;;;;;;5003558;28;20190;-84
2021/03/22 08:16:38;;;;;;;5.30;3.15;;;;;;;;;;5017149;28;20233;-86
2021/03/22 08:19:19;;;;;;;9.55;2.67;;;;;;;;;;5000969;28;20179;-85
2021/03/22 08:21:57;;;;;;;8.52;2.83;;;;;;;;;;5014804;28;20179;-85
2021/03/22 08:24:40;;;;;;;9.93;4.13;;;;;;;;;;4999208;28;20195;-84
2021/03/22 08:27:13;;;;;;;7.50;3.05;;;;;;;;;;5000489;28;20191;-83
2021/03/22 08:29:45;;;;;;;7.82;2.90;;;;;;;;;;5004539;28;20183;-84
2021/03/22 08:32:30;;;;;;;6.55;3.42;;;;;;;;;;4999783;28;20637;-83
2021/03/22 08:35:14;;;;;;;9.85;3.83;;;;;;;;;;4997671;28;20656;-84
2021/03/22 08:37:44;;;;;;;12.27;4.35;;;;;;;;;;5017157;28;20583;-85
2021/03/22 08:40:10;;;;;;;11.00;3.67;;;;;;;;;;5010865;28;20187;-85
2021/03/22 08:42:47;;;;;;;8.48;3.50;;;;;;;;;;4999330;28;20190;-82
2021/03/22 08:45:13;;;;;;;10.57;3.85;;;;;;;;;;5004337;28;20193;-82
2021/03/22 08:47:44;;;;;;;8.43;4.87;;;;;;;;;;5004608;28;20195;-85
2021/03/22 08:50:14;;;;;;;9.25;4.72;;;;;;;;;;4991204;28;20508;-82
2021/03/22 08:52:59;;;;;;;12.52;4.50;;;;;;;;;;5004565;28;20194;-83
2021/03/22 08:55:28;;;;;;;9.15;3.95;;;;;;;;;;5011492;28;20222;-83
2021/03/22 08:57:57;;;;;;;15.73;5.28;;;;;;;;;;5001476;28;20191;-84
2021/03/22 09:00:25;;;;;;;12.15;5.30;;;;;;;;;;5002496;28;20187;-84
2021/03/22 09:02:57;;;;;;;6.88;3.22;;;;;;;;;;5006033;28;20202;-84
2021/03/22 09:05:24;;;;;;;8.40;4.13;;;;;;;;;;5003668;28;20195;-83
2021/03/22 09:07:50;;;;;;;11.63;4.15;;;;;;;;;;5000512;28;20191;-81
2021/03/22 09:10:26;;;;;;;10.30;4.15;;;;;;;;;;5014261;28;20183;-82
2021/03/22 09:12:53;;;;;;;11.85;4.00;;;;;;;;;;4994689;28;20198;-81
2021/03/22 09:15:18;;;;;;;8.63;3.00;;;;;;;;;;4996578;28;20693;-83
2021/03/22 09:17:47;;;;;;;9.90;3.63;;;;;;;;;;5001390;28;20194;-81
2021/03/22 09:20:24;;;;;;;10.73;4.53;;;;;;;;;;4997972;28;20450;-82
2021/03/22 09:22:52;;;;;;;5.90;3.15;;;;;;;;;;4995605;28;20421;-83
2021/03/22 09:25:37;;;;;;;5.03;3.10;;;;;;;;;;5012508;28;20175;-83
2021/03/22 09:28:22;;;;;;;5.47;2.90;;;;;;;;;;4993545;28;20230;-82
2021/03/22 09:31:17;;;;;;;8.73;2.80;;;;;;;;;;4995647;28;20191;-81
2021/03/22 09:33:55;;;;;;;10.05;2.92;;;;;;;;;;4994347;28;20600;-83
2021/03/22 09:36:38;;;;;;;5.50;2.75;;;;;;;;;;4993250;28;20266;-82
2021/03/22 09:39:27;;;;;;;10.98;3.80;;;;;;;;;;4999820;28;20180;-83
2021/03/22 09:41:56;;;;;;;4.78;3.25;;;;;;;;;;5000910;28;20644;-83
2021/03/22 09:44:33;;;;;;;10.75;3.70;;;;;;;;;;4997386;28;20198;-83
2021/03/22 09:47:14;;;;;;;8.65;3.17;;;;;;;;;;5001519;28;20194;-83
2021/03/22 09:50:01;;;;;;;7.93;3.97;;;;;;;;;;5015453;28;20210;-82
2021/03/22 09:52:32;;;;;;;6.63;3.90;;;;;;;;;;5002876;28;20207;-83
2021/03/22 09:54:59;;;;;;;9.82;3.30;;;;;;;;;;4997172;28;20210;-82
2021/03/22 09:57:37;;;;;;;6.07;2.63;;;;;;;;;;4997652;28;20195;-82
2021/03/22 10:00:06;;;;;;;9.85;2.90;;;;;;;;;;4997995;28;20191;-83
2021/03/22 10:02:50;;;;;;;8.00;2.88;;;;;;;;;;5001251;28;20198;-82
2021/03/22 10:05:25;;;;;;;12.32;3.85;;;;;;;;;;4999021;28;20220;-83
2021/03/22 10:08:00;;;;;;;6.70;2.55;;;;;;;;;;4998149;28;20202;-83
2021/03/22 10:10:29;;;;;;;9.00;3.63;;;;;;;;;;5017506;28;20185;-84
2021/03/22 10:13:00;;;;;;;5.82;3.40;;;;;;;;;;4995986;28;20195;-82
2021/03/22 10:15:45;;;;;;;5.35;3.05;;;;;;;;;;4997383;28;20231;-82
2021/03/22 10:18:18;;;;;;;11.10;3.83;;;;;;;;;;4997095;28;20190;-82
2021/03/22 10:20:45;;;;;;;11.20;4.28;;;;;;;;;;5001966;28;20175;-83
2021/03/22 10:23:23;;;;;;;6.20;3.20;;;;;;;;;;4996770;28;20210;-82
2021/03/22 10:25:51;;;;;;;10.05;3.15;;;;;;;;;;5001468;28;20171;-82
2021/03/22 10:28:22;;;;;;;10.75;3.80;;;;;;;;;;5016784;28;20274;-82
2021/03/22 10:30:56;;;;;;;8.73;4.03;;;;;;;;;;5000999;28;20182;-82
2021/03/22 10:33:23;;;;;;;8.50;3.45;;;;;;;;;;5001930;28;20191;-83
2021/03/22 10:35:50;;;;;;;5.65;3.92;;;;;;;;;;5000325;28;20219;-83
2021/03/22 10:38:18;;;;;;;8.65;4.53;;;;;;;;;;5005387;28;20187;-83
2021/03/22 10:40:44;;;;;;;9.70;3.72;;;;;;;;;;5000142;28;20179;-82
2021/03/22 10:43:25;;;;;;;8.18;4.05;;;;;;;;;;5000607;28;20197;-83
2021/03/22 10:45:51;;;;;;;7.35;3.70;;;;;;;;;;4996600;28;20211;-82
2021/03/22 10:48:34;;;;;;;10.70;5.20;;;;;;;;;;5019405;28;20187;-83
2021/03/22 10:51:03;;;;;;;8.70;4.97;;;;;;;;;;5003049;28;20238;-84
2021/03/22 10:53:29;;;;;;;12.15;5.65;;;;;;;;;;5005715;28;20199;-83
2021/03/22 10:55:55;;;;;;;11.35;5.65;;;;;;;;;;5000120;28;20210;-83
2021/03/22 10:58:27;;;;;;;12.93;6.72;;;;;;;;;;5005084;28;20171;-83
2021/03/22 11:01:00;;;;;;;8.77;5.57;;;;;;;;;;5002527;28;20210;-82
2021/03/22 11:03:28;;;;;;;8.85;5.30;;;;;;;;;;5000036;28;20348;-84
2021/03/22 11:05:54;;;;;;;6.88;4.38;;;;;;;;;;5001925;28;20255;-85
2021/03/22 11:08:24;;;;;;;6.85;5.50;;;;;;;;;;5001978;28;20191;-83
2021/03/22 11:10:54;;;;;;;6.68;4.78;;;;;;;;;;4998151;28;20223;-82
2021/03/22 11:13:23;;;;;;;9.00;4.75;;;;;;;;;;5003985;28;20179;-83
2021/03/22 11:15:49;;;;;;;11.02;6.22;;;;;;;;;;4996757;28;20653;-83
2021/03/22 11:18:17;;;;;;;9.13;5.13;;;;;;;;;;5005167;28;20218;-84
2021/03/22 11:20:44;;;;;;;12.23;6.07;;;;;;;;;;5003133;28;20732;-82
2021/03/22 11:23:18;;;;;;;7.63;4.70;;;;;;;;;;5002132;28;20202;-83
2021/03/22 11:25:44;;;;;;;9.60;4.03;;;;;;;;;;4998741;28;20191;-83
2021/03/22 11:28:13;;;;;;;9.60;4.72;;;;;;;;;;5001910;28;20194;-83
2021/03/22 11:30:40;;;;;;;5.70;3.72;;;;;;;;;;5001336;28;20191;-83
2021/03/22 11:33:12;;;;;;;7.68;3.78;;;;;;;;;;5000077;28;20186;-84
2021/03/22 11:35:38;;;;;;;11.50;4.60;;;;;;;;;;5001585;28;20219;-82
2021/03/22 11:38:05;;;;;;;6.05;4.07;;;;;;;;;;5003234;28;20185;-81
2021/03/22 11:40:32;;;;;;;6.20;4.18;;;;;;;;;;5005279;28;20183;-83
2021/03/22 11:42:58;;;;;;;5.32;3.50;;;;;;;;;;5005282;28;20187;-83
2021/03/22 11:45:36;;;;;;;9.25;4.18;;;;;;;;;;4998078;28;20190;-82
2021/03/22 11:48:02;;;;;;;9.27;3.65;;;;;;;;;;5002021;28;20991;-84
2021/03/22 11:50:31;;;;;;;6.10;3.85;;;;;;;;;;5001543;28;20192;-85
2021/03/22 11:53:06;;;;;;;4.30;3.33;;;;;;;;;;5004273;28;20187;-81
2021/03/22 11:55:32;;;;;;;9.75;3.70;;;;;;;;;;5000839;28;20694;-81
2021/03/22 11:57:58;;;;;;;7.88;3.55;;;;;;;;;;5001619;28;20259;-82
2021/03/22 12:00:28;;;;;;;11.23;4.63;;;;;;;;;;4999627;28;20203;-82
2021/03/22 12:02:58;;;;;;;7.65;3.97;;;;;;;;;;5003808;28;20186;-84
2021/03/22 12:05:25;;;;;;;9.98;4.25;;;;;;;;;;5001232;28;20199;-84
2021/03/22 12:07:51;;;;;;;6.28;4.20;;;;;;;;;;4998806;28;20175;-84
2021/03/22 12:10:24;;;;;;;6.97;3.85;;;;;;;;;;5000220;28;20183;-82
2021/03/22 12:12:49;;;;;;;7.35;4.75;;;;;;;;;;5003669;28;20191;-83
2021/03/22 12:15:17;;;;;;;10.13;4.40;;;;;;;;;;4997893;28;20327;-83
2021/03/22 12:17:43;;;;;;;11.25;5.75;;;;;;;;;;5004723;28;20190;-80
2021/03/22 12:20:17;;;;;;;10.93;5.25;;;;;;;;;;5000139;28;20175;-82
2021/03/22 12:22:43;;;;;;;12.88;5.22;;;;;;;;;;5000829;28;20175;-83
2021/03/22 12:25:13;;;;;;;13.77;7.40;;;;;;;;;;4993884;28;20185;-83
2021/03/22 12:27:39;;;;;;;8.93;4.70;;;;;;;;;;4995899;28;20195;-86
2021/03/22 12:30:06;;;;;;;11.48;6.45;;;;;;;;;;5002586;28;20215;-82
2021/03/22 12:32:32;;;;;;;6.70;4.55;;;;;;;;;;5004681;28;20183;-84
2021/03/22 12:34:58;;;;;;;14.13;4.73;;;;;;;;;;4999247;28;20491;-83
2021/03/22 12:37:24;;;;;;;10.35;5.38;;;;;;;;;;5000570;28;20434;-84
2021/03/22 12:39:50;;;;;;;10.83;4.27;;;;;;;;;;4998711;28;20211;-85
2021/03/22 12:42:16;;;;;;;11.55;5.82;;;;;;;;;;5004873;28;20846;-83
2021/03/22 12:44:43;;;;;;;9.48;4.70;;;;;;;;;;5004500;28;20190;-84
2021/03/22 12:47:20;;;;;;;9.85;5.38;;;;;;;;;;4996058;28;20179;-82
2021/03/22 12:49:46;;;;;;;10.20;5.72;;;;;;;;;;4997439;28;20187;-83
2021/03/22 12:52:12;;;;;;;8.48;5.32;;;;;;;;;;4996262;28;20179;-83
2021/03/22 12:54:38;;;;;;;10.27;5.05;;;;;;;;;;4994720;28;20191;-83
2021/03/22 12:57:04;;;;;;;14.63;7.07;;;;;;;;;;5002095;28;20245;-84
2021/03/22 12:59:39;;;;;;;8.45;5.35;;;;;;;;;;5003019;28;20545;-85
2021/03/22 13:02:13;;;;;;;10.15;5.32;;;;;;;;;;4999268;28;20182;-84
2021/03/22 13:04:39;;;;;;;14.10;5.82;;;;;;;;;;5001562;28;20250;-83
2021/03/22 13:07:05;;;;;;;7.93;4.95;;;;;;;;;;5003843;28;20187;-84
2021/03/22 13:09:31;;;;;;;7.65;5.30;;;;;;;;;;5003021;28;20195;-83
2021/03/22 13:11:57;;;;;;;12.55;5.63;;;;;;;;;;4998461;28;20224;-83
2021/03/22 13:14:23;;;;;;;9.40;5.97;;;;;;;;;;5003550;28;20191;-84
2021/03/22 13:16:49;;;;;;;9.63;5.67;;;;;;;;;;4997301;28;20482;-85
2021/03/22 13:19:15;;;;;;;7.72;5.10;;;;;;;;;;5014693;28;20461;-83
2021/03/22 13:21:43;;;;;;;10.23;7.13;;;;;;;;;;4994090;28;20191;-84
2021/03/22 13:24:11;;;;;;;4.82;4.18;;;;;;;;;;5002479;28;20524;-85
2021/03/22 13:26:37;;;;;;;8.75;4.47;;;;;;;;;;5002141;28;20187;-81
2021/03/22 13:29:04;;;;;;;11.23;5.22;;;;;;;;;;4998254;28;20191;-83
2021/03/22 13:31:32;;;;;;;10.05;5.55;;;;;;;;;;5003485;28;20182;-83
2021/03/22 13:33:58;;;;;;;8.38;4.60;;;;;;;;;;4998366;28;20685;-84
2021/03/22 13:36:24;;;;;;;8.93;4.97;;;;;;;;;;4998826;28;20218;-83
2021/03/22 13:38:50;;;;;;;11.70;5.20;;;;;;;;;;5001714;28;20190;-83
2021/03/22 13:41:25;;;;;;;9.13;4.50;;;;;;;;;;4997281;28;20175;-86
2021/03/22 13:43:51;;;;;;;14.25;4.85;;;;;;;;;;5011417;28;20426;-84
2021/03/22 13:46:18;;;;;;;7.32;4.10;;;;;;;;;;5018789;28;20210;-84
2021/03/22 13:48:44;;;;;;;9.30;4.63;;;;;;;;;;5003569;28;20213;-83
2021/03/22 13:51:17;;;;;;;10.48;5.20;;;;;;;;;;4999264;28;20215;-83
2021/03/22 13:53:43;;;;;;;6.82;4.55;;;;;;;;;;5000192;28;20309;-83
2021/03/22 13:56:09;;;;;;;9.05;4.70;;;;;;;;;;4998758;28;20210;-85
2021/03/22 13:58:35;;;;;;;9.95;4.25;;;;;;;;;;5014634;28;20183;-84
2021/03/22 14:01:01;;;;;;;14.85;4.88;;;;;;;;;;5000305;28;20222;-85
2021/03/22 14:03:27;;;;;;;9.23;4.40;;;;;;;;;;5002867;28;20187;-85
2021/03/22 14:05:55;;;;;;;13.15;5.53;;;;;;;;;;5001192;28;20250;-85
2021/03/22 14:08:22;;;;;;;7.20;4.07;;;;;;;;;;4997888;28;20183;-84
2021/03/22 14:10:48;;;;;;;9.98;4.28;;;;;;;;;;5002054;28;20282;-82
2021/03/22 14:13:14;;;;;;;8.60;3.97;;;;;;;;;;5014332;28;20179;-85
2021/03/22 14:15:42;;;;;;;8.95;4.78;;;;;;;;;;4997215;28;20207;-84
2021/03/22 14:18:09;;;;;;;9.77;4.10;;;;;;;;;;5002858;28;20179;-83
2021/03/22 14:20:36;;;;;;;10.32;4.32;;;;;;;;;;4998401;28;20192;-85
2021/03/22 14:23:02;;;;;;;8.27;4.38;;;;;;;;;;5002336;28;20194;-85
2021/03/22 14:25:28;;;;;;;8.02;3.88;;;;;;;;;;4998799;28;20229;-85
2021/03/22 14:27:54;;;;;;;5.88;4.07;;;;;;;;;;4999035;28;20198;-85
2021/03/22 14:30:27;;;;;;;10.13;4.78;;;;;;;;;;5001799;28;20592;-83
2021/03/22 14:32:53;;;;;;;6.60;4.38;;;;;;;;;;4987923;28;20199;-84
2021/03/22 14:35:25;;;;;;;10.13;5.23;;;;;;;;;;5000599;28;20583;-83
2021/03/22 14:37:52;;;;;;;6.70;4.80;;;;;;;;;;4997651;28;20422;-85
2021/03/22 14:40:18;;;;;;;9.57;4.65;;;;;;;;;;5016283;28;20194;-85
2021/03/22 14:42:44;;;;;;;7.25;4.13;;;;;;;;;;4999227;28;20434;-84
2021/03/22 14:45:12;;;;;;;8.82;4.72;;;;;;;;;;4998200;28;20421;-85
2021/03/22 14:47:38;;;;;;;9.60;4.88;;;;;;;;;;4999341;28;20247;-85
2021/03/22 14:50:05;;;;;;;8.63;4.40;;;;;;;;;;5001465;28;20187;-85
2021/03/22 14:52:31;;;;;;;7.38;4.43;;;;;;;;;;4996622;28;20413;-85